CFG34P LHBP-EDDF
Flight info
| Callsign | CFG34P |
|---|---|
| Flight time | 1h 25m |
| Altitude | 34000 |
| Route | GILEP DCT ZOLKU DCT BEGLA DCT DITIS DCT RAPET T170 VAGAB/N0394F240 T170 GAPLA T178 KERAX KERAX5A |
| Aircraft | A20N/M-SDE2E3FGHIRWXY/LB1 |
Departure
| Time | 2026-05-05 15:40 |
|---|---|
| Airport | Budapest Liszt Ferenc International Airport (LHBP) |
Arrival
| Time | 2026-05-05 17:05 |
|---|---|
| Airport | Frankfurt Main Airport (EDDF) |
| Time | Latitude | Longitude | Altitude | Speed | Heading |
|---|---|---|---|---|---|
| 2026-05-05 15:14 | 47.43515 | 19.25972 | 484 ft | 0 kts | 312° |
| 2026-05-05 15:36 | 47.43519 | 19.25966 | 456 ft | 4 kts | 313° |
| 2026-05-05 15:36 | 47.43552 | 19.25923 | 457 ft | 11 kts | 336° |
| 2026-05-05 15:36 | 47.43588 | 19.25948 | 456 ft | 7 kts | 43° |
| 2026-05-05 15:36 | 47.43644 | 19.26028 | 457 ft | 17 kts | 38° |
| 2026-05-05 15:37 | 47.43696 | 19.26029 | 456 ft | 8 kts | 319° |
| 2026-05-05 15:37 | 47.43766 | 19.25959 | 457 ft | 11 kts | 5° |
| 2026-05-05 15:37 | 47.43808 | 19.26010 | 457 ft | 10 kts | 43° |
| 2026-05-05 15:37 | 47.43875 | 19.26101 | 457 ft | 17 kts | 43° |
| 2026-05-05 15:38 | 47.43996 | 19.26263 | 459 ft | 23 kts | 44° |
| 2026-05-05 15:38 | 47.44055 | 19.26415 | 468 ft | 17 kts | 84° |
| 2026-05-05 15:38 | 47.44036 | 19.26575 | 469 ft | 6 kts | 126° |
| 2026-05-05 15:38 | 47.44035 | 19.26577 | 469 ft | 0 kts | 126° |
| 2026-05-05 15:39 | 47.44033 | 19.26581 | 469 ft | 8 kts | 128° |
| 2026-05-05 15:39 | 47.43971 | 19.26684 | 470 ft | 37 kts | 133° |
| 2026-05-05 15:39 | 47.43743 | 19.27040 | 470 ft | 98 kts | 130° |
| 2026-05-05 15:39 | 47.43093 | 19.28071 | 461 ft | 166 kts | 136° |
| 2026-05-05 15:40 | 47.42446 | 19.29101 | 1113 ft | 160 kts | 135° |
| 2026-05-05 15:40 | 47.41746 | 19.30436 | 1945 ft | 170 kts | 126° |
| 2026-05-05 15:40 | 47.41200 | 19.32038 | 2866 ft | 183 kts | 122° |
| 2026-05-05 15:40 | 47.40593 | 19.33841 | 3413 ft | 212 kts | 122° |
| 2026-05-05 15:41 | 47.39987 | 19.35544 | 4052 ft | 232 kts | 122° |
| 2026-05-05 15:41 | 47.39924 | 19.35718 | 4104 ft | 234 kts | 122° |
| 2026-05-05 15:41 | 47.39837 | 19.35962 | 4190 ft | 236 kts | 122° |
| 2026-05-05 15:41 | 47.39760 | 19.36177 | 4269 ft | 239 kts | 122° |
| 2026-05-05 15:42 | 47.39656 | 19.36467 | 4380 ft | 242 kts | 122° |
| 2026-05-05 15:42 | 47.39582 | 19.36675 | 4468 ft | 244 kts | 122° |
| 2026-05-05 15:42 | 47.38959 | 19.38350 | 5348 ft | 247 kts | 123° |
| 2026-05-05 15:42 | 47.38053 | 19.40306 | 6722 ft | 243 kts | 138° |
| 2026-05-05 15:43 | 47.36695 | 19.41683 | 8035 ft | 240 kts | 162° |
| 2026-05-05 15:43 | 47.35072 | 19.42116 | 9413 ft | 237 kts | 185° |
| 2026-05-05 15:43 | 47.33484 | 19.41526 | 10689 ft | 239 kts | 207° |
| 2026-05-05 15:43 | 47.32196 | 19.40023 | 11838 ft | 248 kts | 229° |
| 2026-05-05 15:44 | 47.31328 | 19.37774 | 12944 ft | 261 kts | 240° |
| 2026-05-05 15:44 | 47.30507 | 19.35291 | 13636 ft | 286 kts | 240° |
| 2026-05-05 15:44 | 47.29612 | 19.32602 | 14165 ft | 311 kts | 241° |
| 2026-05-05 15:44 | 47.28629 | 19.29678 | 14637 ft | 335 kts | 241° |
| 2026-05-05 15:45 | 47.27585 | 19.26591 | 15469 ft | 344 kts | 242° |
| 2026-05-05 15:45 | 47.26507 | 19.23418 | 16473 ft | 350 kts | 242° |
| 2026-05-05 15:45 | 47.25407 | 19.20193 | 17452 ft | 357 kts | 242° |
| 2026-05-05 15:45 | 47.24285 | 19.16913 | 18372 ft | 363 kts | 242° |
| 2026-05-05 15:46 | 47.23138 | 19.13566 | 19237 ft | 367 kts | 243° |
| 2026-05-05 15:46 | 47.21981 | 19.10189 | 20104 ft | 372 kts | 243° |
| 2026-05-05 15:46 | 47.20992 | 19.06642 | 20937 ft | 378 kts | 255° |
| 2026-05-05 15:46 | 47.20692 | 19.02783 | 21787 ft | 384 kts | 271° |
| 2026-05-05 15:47 | 47.21155 | 18.98893 | 22641 ft | 391 kts | 287° |
| 2026-05-05 15:47 | 47.21874 | 18.96449 | 23202 ft | 396 kts | 297° |
| 2026-05-05 15:47 | 47.24048 | 18.92024 | 24222 ft | 402 kts | 306° |
| 2026-05-05 15:47 | 47.25802 | 18.88808 | 24994 ft | 404 kts | 307° |
| 2026-05-05 15:48 | 47.27572 | 18.85559 | 25677 ft | 408 kts | 307° |
| 2026-05-05 15:48 | 47.29347 | 18.82269 | 26361 ft | 411 kts | 306° |
| 2026-05-05 15:48 | 47.31124 | 18.78945 | 27047 ft | 414 kts | 306° |
| 2026-05-05 15:48 | 47.32902 | 18.75599 | 27708 ft | 417 kts | 306° |
| 2026-05-05 15:49 | 47.34692 | 18.72216 | 28353 ft | 420 kts | 306° |
| 2026-05-05 15:49 | 47.36495 | 18.68807 | 28949 ft | 423 kts | 306° |
| 2026-05-05 15:49 | 47.38313 | 18.65366 | 29529 ft | 426 kts | 306° |
| 2026-05-05 15:49 | 47.40019 | 18.61849 | 30079 ft | 428 kts | 301° |
| 2026-05-05 15:50 | 47.41465 | 18.58009 | 30544 ft | 430 kts | 294° |
| 2026-05-05 15:50 | 47.42616 | 18.53923 | 31019 ft | 432 kts | 288° |
| 2026-05-05 15:50 | 47.43497 | 18.49679 | 31584 ft | 432 kts | 285° |
| 2026-05-05 15:50 | 47.44362 | 18.45423 | 32227 ft | 431 kts | 285° |
| 2026-05-05 15:51 | 47.45229 | 18.41198 | 32869 ft | 429 kts | 285° |
| 2026-05-05 15:51 | 47.46093 | 18.36983 | 33513 ft | 428 kts | 285° |
| 2026-05-05 15:51 | 47.46950 | 18.32779 | 33837 ft | 425 kts | 285° |
| 2026-05-05 15:52 | 47.48591 | 18.24441 | 33897 ft | 423 kts | 282° |
| 2026-05-05 15:52 | 47.49975 | 18.16003 | 33898 ft | 424 kts | 282° |
| 2026-05-05 15:53 | 47.51372 | 18.07561 | 33892 ft | 423 kts | 282° |
| 2026-05-05 15:53 | 47.52749 | 17.99172 | 33894 ft | 423 kts | 282° |
| 2026-05-05 15:54 | 47.54133 | 17.90682 | 33887 ft | 423 kts | 282° |
| 2026-05-05 15:54 | 47.55705 | 17.82289 | 33886 ft | 425 kts | 288° |
| 2026-05-05 15:55 | 47.58278 | 17.74431 | 33872 ft | 429 kts | 298° |
| 2026-05-05 15:55 | 47.61323 | 17.66821 | 33883 ft | 429 kts | 297° |
| 2026-05-05 15:56 | 47.64343 | 17.59187 | 33878 ft | 429 kts | 297° |
| 2026-05-05 15:56 | 47.67366 | 17.51537 | 33868 ft | 429 kts | 297° |
| 2026-05-05 15:57 | 47.70381 | 17.43898 | 33880 ft | 429 kts | 297° |
| 2026-05-05 15:57 | 47.73398 | 17.36224 | 33870 ft | 430 kts | 297° |
| 2026-05-05 15:58 | 47.76394 | 17.28577 | 33851 ft | 431 kts | 297° |
| 2026-05-05 15:58 | 47.79390 | 17.20922 | 33834 ft | 423 kts | 297° |
| 2026-05-05 15:59 | 47.82358 | 17.13335 | 33831 ft | 427 kts | 299° |
| 2026-05-05 15:59 | 47.85971 | 17.06237 | 33820 ft | 432 kts | 306° |
| 2026-05-05 16:00 | 47.89780 | 16.99347 | 33820 ft | 431 kts | 306° |
| 2026-05-05 16:00 | 47.93586 | 16.92428 | 33816 ft | 432 kts | 306° |
| 2026-05-05 16:01 | 47.97372 | 16.85535 | 33789 ft | 432 kts | 306° |
| 2026-05-05 16:01 | 48.00552 | 16.79734 | 33785 ft | 432 kts | 306° |
| 2026-05-05 16:02 | 48.04983 | 16.71640 | 33777 ft | 432 kts | 306° |
| 2026-05-05 16:02 | 48.08782 | 16.64678 | 33779 ft | 432 kts | 306° |
| 2026-05-05 16:03 | 48.11968 | 16.58822 | 33777 ft | 432 kts | 305° |
| 2026-05-05 16:03 | 48.15738 | 16.51874 | 33777 ft | 432 kts | 305° |
| 2026-05-05 16:04 | 48.19521 | 16.44888 | 33782 ft | 432 kts | 305° |
| 2026-05-05 16:04 | 48.23343 | 16.37808 | 33767 ft | 437 kts | 305° |
| 2026-05-05 16:05 | 48.27166 | 16.30712 | 33755 ft | 437 kts | 305° |
| 2026-05-05 16:05 | 48.30990 | 16.23593 | 33746 ft | 437 kts | 305° |
| 2026-05-05 16:06 | 48.34797 | 16.16488 | 33727 ft | 437 kts | 305° |
| 2026-05-05 16:06 | 48.38605 | 16.09359 | 33721 ft | 437 kts | 305° |
| 2026-05-05 16:07 | 48.42387 | 16.02259 | 33717 ft | 433 kts | 305° |
| 2026-05-05 16:07 | 48.46162 | 15.95153 | 33717 ft | 434 kts | 305° |
| 2026-05-05 16:08 | 48.49907 | 15.88089 | 33711 ft | 434 kts | 305° |
| 2026-05-05 16:08 | 48.53676 | 15.80961 | 33710 ft | 434 kts | 305° |
| 2026-05-05 16:09 | 48.57446 | 15.73807 | 33698 ft | 435 kts | 306° |
| 2026-05-05 16:09 | 48.61229 | 15.66610 | 33712 ft | 437 kts | 306° |
| 2026-05-05 16:10 | 48.65016 | 15.59392 | 33726 ft | 439 kts | 306° |
| 2026-05-05 16:10 | 48.68805 | 15.52149 | 33732 ft | 439 kts | 305° |
| 2026-05-05 16:11 | 48.72534 | 15.45006 | 33716 ft | 430 kts | 305° |
| 2026-05-05 16:12 | 48.80030 | 15.30575 | 33725 ft | 436 kts | 305° |
| 2026-05-05 16:13 | 48.89399 | 15.12439 | 33727 ft | 436 kts | 304° |
| 2026-05-05 16:13 | 48.93044 | 15.05125 | 33729 ft | 437 kts | 303° |
| 2026-05-05 16:14 | 49.00296 | 14.90143 | 33747 ft | 439 kts | 303° |
| 2026-05-05 16:15 | 49.07490 | 14.75304 | 33736 ft | 435 kts | 303° |
| 2026-05-05 16:16 | 49.14702 | 14.60339 | 33746 ft | 438 kts | 303° |
| 2026-05-05 16:17 | 49.20107 | 14.49073 | 33751 ft | 438 kts | 303° |
| 2026-05-05 16:18 | 49.25508 | 14.37764 | 33753 ft | 439 kts | 303° |
| 2026-05-05 16:19 | 49.30904 | 14.26418 | 33741 ft | 440 kts | 303° |
| 2026-05-05 16:19 | 49.36294 | 14.15038 | 33766 ft | 439 kts | 303° |
| 2026-05-05 16:20 | 49.43436 | 13.99882 | 33748 ft | 438 kts | 303° |
| 2026-05-05 16:22 | 49.52335 | 13.80882 | 33744 ft | 438 kts | 302° |
| 2026-05-05 16:23 | 49.59446 | 13.65597 | 33746 ft | 439 kts | 302° |
| 2026-05-05 16:23 | 49.64754 | 13.54134 | 33747 ft | 440 kts | 301° |
| 2026-05-05 16:24 | 49.68306 | 13.46432 | 33747 ft | 440 kts | 301° |
| 2026-05-05 16:25 | 49.73620 | 13.34869 | 33746 ft | 439 kts | 301° |
| 2026-05-05 16:25 | 49.78933 | 13.23255 | 33748 ft | 440 kts | 301° |
| 2026-05-05 16:26 | 49.85964 | 13.07811 | 33754 ft | 440 kts | 301° |
| 2026-05-05 16:27 | 49.89243 | 13.00576 | 33756 ft | 440 kts | 301° |
| 2026-05-05 16:27 | 49.92498 | 12.93377 | 33786 ft | 440 kts | 301° |
| 2026-05-05 16:28 | 49.95944 | 12.85726 | 33779 ft | 440 kts | 301° |
| 2026-05-05 16:28 | 49.99458 | 12.77910 | 33777 ft | 440 kts | 301° |
| 2026-05-05 16:29 | 50.02957 | 12.70099 | 33777 ft | 440 kts | 301° |
| 2026-05-05 16:29 | 50.06459 | 12.62263 | 33779 ft | 440 kts | 301° |
| 2026-05-05 16:30 | 50.09928 | 12.54474 | 33774 ft | 441 kts | 301° |
| 2026-05-05 16:30 | 50.13419 | 12.46613 | 33772 ft | 441 kts | 301° |
| 2026-05-05 16:31 | 50.16902 | 12.38735 | 33749 ft | 442 kts | 299° |
| 2026-05-05 16:31 | 50.19796 | 12.30359 | 33751 ft | 437 kts | 289° |
| 2026-05-05 16:32 | 50.21885 | 12.21468 | 33758 ft | 436 kts | 286° |
| 2026-05-05 16:32 | 50.23946 | 12.12557 | 33786 ft | 437 kts | 286° |
| 2026-05-05 16:33 | 50.25998 | 12.03617 | 33799 ft | 437 kts | 286° |
| 2026-05-05 16:33 | 50.28054 | 11.94641 | 33815 ft | 437 kts | 285° |
| 2026-05-05 16:34 | 50.30088 | 11.85776 | 33813 ft | 437 kts | 285° |
| 2026-05-05 16:34 | 50.32139 | 11.76796 | 33811 ft | 437 kts | 285° |
| 2026-05-05 16:35 | 50.34096 | 11.68185 | 33805 ft | 437 kts | 285° |
| 2026-05-05 16:35 | 50.36125 | 11.59220 | 33820 ft | 437 kts | 285° |
| 2026-05-05 16:36 | 50.38150 | 11.50241 | 33807 ft | 437 kts | 284° |
| 2026-05-05 16:36 | 50.40162 | 11.41272 | 33797 ft | 436 kts | 284° |
| 2026-05-05 16:37 | 50.42165 | 11.32308 | 33793 ft | 435 kts | 284° |
| 2026-05-05 16:37 | 50.44143 | 11.23404 | 33792 ft | 435 kts | 284° |
| 2026-05-05 16:38 | 50.46131 | 11.14409 | 33804 ft | 436 kts | 284° |
| 2026-05-05 16:38 | 50.48112 | 11.05401 | 33799 ft | 438 kts | 284° |
| 2026-05-05 16:39 | 50.50096 | 10.96357 | 33808 ft | 438 kts | 284° |
| 2026-05-05 16:39 | 50.52076 | 10.87285 | 33804 ft | 438 kts | 284° |
| 2026-05-05 16:40 | 50.54057 | 10.78219 | 33811 ft | 438 kts | 285° |
| 2026-05-05 16:40 | 50.56113 | 10.69203 | 33778 ft | 440 kts | 285° |
| 2026-05-05 16:41 | 50.57144 | 10.64682 | 33410 ft | 441 kts | 285° |
| 2026-05-05 16:41 | 50.57831 | 10.61657 | 32908 ft | 442 kts | 285° |
| 2026-05-05 16:41 | 50.59221 | 10.55499 | 31309 ft | 451 kts | 285° |
| 2026-05-05 16:41 | 50.59920 | 10.52398 | 30399 ft | 457 kts | 285° |
| 2026-05-05 16:42 | 50.60983 | 10.47698 | 29291 ft | 449 kts | 285° |
| 2026-05-05 16:42 | 50.62017 | 10.43132 | 28492 ft | 436 kts | 285° |
| 2026-05-05 16:42 | 50.63033 | 10.38617 | 28091 ft | 439 kts | 285° |
| 2026-05-05 16:42 | 50.63977 | 10.34072 | 27708 ft | 435 kts | 279° |
| 2026-05-05 16:43 | 50.64342 | 10.29384 | 27226 ft | 422 kts | 265° |
| 2026-05-05 16:43 | 50.63977 | 10.24951 | 27047 ft | 399 kts | 251° |
| 2026-05-05 16:43 | 50.63009 | 10.21004 | 26819 ft | 371 kts | 239° |
| 2026-05-05 16:43 | 50.61782 | 10.17576 | 26611 ft | 347 kts | 238° |
| 2026-05-05 16:44 | 50.60647 | 10.14353 | 26429 ft | 327 kts | 238° |
| 2026-05-05 16:44 | 50.59588 | 10.11307 | 26269 ft | 307 kts | 238° |
| 2026-05-05 16:44 | 50.58599 | 10.08455 | 26121 ft | 288 kts | 238° |
| 2026-05-05 16:44 | 50.57654 | 10.05734 | 25788 ft | 278 kts | 238° |
| 2026-05-05 16:45 | 50.56727 | 10.03081 | 25231 ft | 277 kts | 238° |
| 2026-05-05 16:45 | 50.55806 | 10.00449 | 24696 ft | 276 kts | 238° |
| 2026-05-05 16:45 | 50.54885 | 9.97815 | 24177 ft | 275 kts | 238° |
| 2026-05-05 16:45 | 50.53979 | 9.95406 | 23701 ft | 272 kts | 232° |
| 2026-05-05 16:46 | 50.52810 | 9.93095 | 23146 ft | 269 kts | 227° |
| 2026-05-05 16:46 | 50.51612 | 9.90844 | 22566 ft | 267 kts | 227° |
| 2026-05-05 16:46 | 50.50428 | 9.88600 | 22048 ft | 265 kts | 228° |
| 2026-05-05 16:46 | 50.49262 | 9.86383 | 21501 ft | 263 kts | 228° |
| 2026-05-05 16:47 | 50.48099 | 9.84171 | 20975 ft | 260 kts | 228° |
| 2026-05-05 16:47 | 50.46955 | 9.81999 | 20493 ft | 256 kts | 228° |
| 2026-05-05 16:47 | 50.45838 | 9.79880 | 20029 ft | 261 kts | 228° |
| 2026-05-05 16:47 | 50.44669 | 9.77669 | 19433 ft | 269 kts | 228° |
| 2026-05-05 16:48 | 50.43457 | 9.75380 | 18844 ft | 276 kts | 228° |
| 2026-05-05 16:48 | 50.42229 | 9.73060 | 18256 ft | 277 kts | 228° |
| 2026-05-05 16:48 | 50.40998 | 9.70733 | 17596 ft | 277 kts | 228° |
| 2026-05-05 16:48 | 50.39762 | 9.68400 | 16947 ft | 277 kts | 228° |
| 2026-05-05 16:49 | 50.38552 | 9.66117 | 16312 ft | 276 kts | 228° |
| 2026-05-05 16:49 | 50.37306 | 9.63768 | 15675 ft | 276 kts | 228° |
| 2026-05-05 16:49 | 50.36098 | 9.61493 | 15065 ft | 275 kts | 228° |
| 2026-05-05 16:49 | 50.34873 | 9.59189 | 14458 ft | 275 kts | 228° |
| 2026-05-05 16:50 | 50.33646 | 9.56881 | 13864 ft | 274 kts | 228° |
| 2026-05-05 16:50 | 50.32426 | 9.54590 | 13233 ft | 273 kts | 228° |
| 2026-05-05 16:50 | 50.31213 | 9.52315 | 12576 ft | 272 kts | 228° |
| 2026-05-05 16:50 | 50.30015 | 9.50071 | 11956 ft | 271 kts | 228° |
| 2026-05-05 16:51 | 50.28807 | 9.47810 | 11316 ft | 269 kts | 228° |
| 2026-05-05 16:51 | 50.27610 | 9.45571 | 10694 ft | 268 kts | 227° |
| 2026-05-05 16:51 | 50.26166 | 9.43815 | 10108 ft | 262 kts | 201° |
| 2026-05-05 16:51 | 50.24450 | 9.43309 | 9898 ft | 243 kts | 184° |
| 2026-05-05 16:52 | 50.22827 | 9.43127 | 9743 ft | 226 kts | 184° |
| 2026-05-05 16:52 | 50.21284 | 9.42961 | 9409 ft | 219 kts | 184° |
| 2026-05-05 16:52 | 50.19769 | 9.42794 | 8948 ft | 218 kts | 184° |
| 2026-05-05 16:52 | 50.18277 | 9.42518 | 8476 ft | 219 kts | 198° |
| 2026-05-05 16:53 | 50.17162 | 9.41426 | 8139 ft | 217 kts | 226° |
| 2026-05-05 16:53 | 50.16497 | 9.39341 | 7890 ft | 221 kts | 253° |
| 2026-05-05 16:53 | 50.16115 | 9.37000 | 7819 ft | 222 kts | 253° |
| 2026-05-05 16:53 | 50.15738 | 9.34674 | 7813 ft | 220 kts | 254° |
| 2026-05-05 16:54 | 50.15365 | 9.32368 | 7817 ft | 220 kts | 253° |
| 2026-05-05 16:54 | 50.14991 | 9.30055 | 7699 ft | 219 kts | 253° |
| 2026-05-05 16:54 | 50.14618 | 9.27761 | 7446 ft | 218 kts | 253° |
| 2026-05-05 16:54 | 50.14241 | 9.25461 | 7187 ft | 218 kts | 253° |
| 2026-05-05 16:55 | 50.13885 | 9.23179 | 6969 ft | 217 kts | 260° |
| 2026-05-05 16:55 | 50.13932 | 9.20818 | 6705 ft | 218 kts | 274° |
| 2026-05-05 16:55 | 50.14088 | 9.18466 | 6466 ft | 217 kts | 274° |
| 2026-05-05 16:55 | 50.14247 | 9.16143 | 6178 ft | 218 kts | 274° |
| 2026-05-05 16:56 | 50.14412 | 9.13810 | 5955 ft | 216 kts | 274° |
| 2026-05-05 16:56 | 50.14532 | 9.11470 | 5707 ft | 214 kts | 269° |
| 2026-05-05 16:56 | 50.14567 | 9.09168 | 5463 ft | 214 kts | 268° |
| 2026-05-05 16:56 | 50.14584 | 9.06861 | 5252 ft | 212 kts | 268° |
| 2026-05-05 16:57 | 50.14603 | 9.04555 | 5029 ft | 211 kts | 268° |
| 2026-05-05 16:57 | 50.14634 | 9.02286 | 4996 ft | 212 kts | 268° |
| 2026-05-05 16:57 | 50.14670 | 9.00004 | 4993 ft | 210 kts | 269° |
| 2026-05-05 16:57 | 50.14701 | 8.97694 | 4993 ft | 213 kts | 266° |
| 2026-05-05 16:58 | 50.14521 | 8.95453 | 4995 ft | 208 kts | 255° |
| 2026-05-05 16:58 | 50.14104 | 8.93271 | 4995 ft | 208 kts | 248° |
| 2026-05-05 16:58 | 50.13610 | 8.91188 | 4993 ft | 199 kts | 247° |
| 2026-05-05 16:58 | 50.13145 | 8.89238 | 4992 ft | 185 kts | 247° |
| 2026-05-05 16:59 | 50.12695 | 8.87353 | 5002 ft | 190 kts | 248° |
| 2026-05-05 16:59 | 50.12239 | 8.85438 | 4913 ft | 188 kts | 248° |
| 2026-05-05 16:59 | 50.11787 | 8.83542 | 4674 ft | 187 kts | 248° |
| 2026-05-05 16:59 | 50.11333 | 8.81638 | 4412 ft | 187 kts | 248° |
| 2026-05-05 17:00 | 50.10880 | 8.79739 | 4143 ft | 187 kts | 248° |
| 2026-05-05 17:00 | 50.10426 | 8.77838 | 3885 ft | 185 kts | 248° |
| 2026-05-05 17:00 | 50.09996 | 8.76035 | 3641 ft | 174 kts | 249° |
| 2026-05-05 17:00 | 50.09556 | 8.74193 | 3386 ft | 179 kts | 249° |
| 2026-05-05 17:01 | 50.09130 | 8.72410 | 3129 ft | 178 kts | 249° |
| 2026-05-05 17:01 | 50.08828 | 8.71142 | 2950 ft | 179 kts | 250° |
| 2026-05-05 17:01 | 50.08799 | 8.71021 | 2934 ft | 180 kts | 250° |
| 2026-05-05 17:01 | 50.08643 | 8.70366 | 2835 ft | 180 kts | 250° |
| 2026-05-05 17:02 | 50.08510 | 8.69814 | 2770 ft | 179 kts | 250° |
| 2026-05-05 17:02 | 50.08432 | 8.69488 | 2719 ft | 177 kts | 250° |
| 2026-05-05 17:02 | 50.08039 | 8.67842 | 2463 ft | 153 kts | 250° |
| 2026-05-05 17:02 | 50.07692 | 8.66383 | 2256 ft | 136 kts | 250° |
| 2026-05-05 17:03 | 50.07352 | 8.64960 | 2065 ft | 139 kts | 250° |
| 2026-05-05 17:03 | 50.07023 | 8.63591 | 1879 ft | 136 kts | 250° |
| 2026-05-05 17:03 | 50.06690 | 8.62201 | 1680 ft | 137 kts | 250° |
| 2026-05-05 17:03 | 50.06365 | 8.60851 | 1485 ft | 138 kts | 251° |
| 2026-05-05 17:04 | 50.06039 | 8.59453 | 1300 ft | 137 kts | 250° |
| 2026-05-05 17:04 | 50.05720 | 8.58088 | 1091 ft | 138 kts | 250° |
| 2026-05-05 17:04 | 50.05412 | 8.56800 | 908 ft | 138 kts | 251° |
| 2026-05-05 17:04 | 50.05088 | 8.55407 | 696 ft | 136 kts | 249° |
| 2026-05-05 17:05 | 50.04746 | 8.54026 | 536 ft | 136 kts | 249° |
| 2026-05-05 17:05 | 50.04411 | 8.52657 | 376 ft | 133 kts | 249° |
| 2026-05-05 17:05 | 50.04122 | 8.51474 | 362 ft | 88 kts | 249° |
| 2026-05-05 17:05 | 50.04008 | 8.50988 | 353 ft | 28 kts | 249° |
| 2026-05-05 17:06 | 50.03903 | 8.50604 | 337 ft | 42 kts | 246° |
| 2026-05-05 17:06 | 50.03757 | 8.50289 | 330 ft | 28 kts | 219° |
| 2026-05-05 17:06 | 50.03672 | 8.50188 | 326 ft | 18 kts | 215° |
| 2026-05-05 17:06 | 50.03639 | 8.50194 | 327 ft | 6 kts | 125° |
| 2026-05-05 17:07 | 50.03631 | 8.50266 | 329 ft | 9 kts | 73° |
| 2026-05-05 17:07 | 50.03656 | 8.50401 | 334 ft | 16 kts | 74° |
| 2026-05-05 17:07 | 50.03700 | 8.50573 | 335 ft | 19 kts | 70° |
| 2026-05-05 17:07 | 50.03744 | 8.50777 | 348 ft | 21 kts | 69° |
| 2026-05-05 17:08 | 50.03801 | 8.51009 | 350 ft | 25 kts | 69° |
| 2026-05-05 17:08 | 50.03866 | 8.51276 | 351 ft | 28 kts | 68° |
| 2026-05-05 17:08 | 50.03936 | 8.51564 | 353 ft | 29 kts | 68° |
| 2026-05-05 17:08 | 50.04004 | 8.51865 | 355 ft | 31 kts | 73° |
| 2026-05-05 17:09 | 50.04080 | 8.52185 | 358 ft | 33 kts | 69° |
| 2026-05-05 17:09 | 50.04163 | 8.52531 | 359 ft | 35 kts | 66° |
| 2026-05-05 17:09 | 50.04250 | 8.52882 | 368 ft | 33 kts | 68° |
| 2026-05-05 17:09 | 50.04323 | 8.53182 | 370 ft | 30 kts | 70° |
| 2026-05-05 17:10 | 50.04393 | 8.53491 | 375 ft | 25 kts | 73° |
| 2026-05-05 17:10 | 50.04411 | 8.53708 | 375 ft | 0 kts | 82° |
| 2026-05-05 17:10 | 50.04415 | 8.53767 | 372 ft | 20 kts | 88° |
| 2026-05-05 17:11 | 50.04420 | 8.53989 | 377 ft | 9 kts | 79° |
| 2026-05-05 17:11 | 50.04429 | 8.54051 | 377 ft | 10 kts | 76° |
| 2026-05-05 17:11 | 50.04447 | 8.54162 | 376 ft | 15 kts | 79° |
| 2026-05-05 17:11 | 50.04434 | 8.54312 | 364 ft | 13 kts | 105° |
| 2026-05-05 17:12 | 50.04435 | 8.54330 | 356 ft | 5 kts | 86° |
| 2026-05-05 17:12 | 50.04461 | 8.54439 | 352 ft | 17 kts | 87° |
| 2026-05-05 17:12 | 50.04434 | 8.54577 | 356 ft | 21 kts | 112° |
| 2026-05-05 17:12 | 50.04357 | 8.54658 | 357 ft | 0 kts | 154° |
| 2026-05-05 17:13 | 50.04355 | 8.54665 | 353 ft | 2 kts | 127° |
| 2026-05-05 17:13 | 50.04343 | 8.54695 | 354 ft | 5 kts | 123° |
| 2026-05-05 17:13 | 50.04336 | 8.54711 | 355 ft | 1 kts | 125° |
| 2026-05-05 17:13 | 50.04318 | 8.54748 | 358 ft | 19 kts | 127° |
| 2026-05-05 17:14 | 50.04211 | 8.54825 | 361 ft | 21 kts | 169° |
| 2026-05-05 17:14 | 50.04100 | 8.54893 | 355 ft | 0 kts | 185° |
| 2026-05-05 17:14 | 50.04083 | 8.54901 | 356 ft | 0 kts | 161° |
| 2026-05-05 17:15 | 50.03990 | 8.54957 | 362 ft | 23 kts | 154° |
| 2026-05-05 17:15 | 50.03889 | 8.55020 | 362 ft | 24 kts | 154° |
| 2026-05-05 17:15 | 50.03875 | 8.55230 | 359 ft | 15 kts | 71° |
| 2026-05-05 17:16 | 50.03921 | 8.55417 | 359 ft | 23 kts | 70° |
| 2026-05-05 17:16 | 50.03962 | 8.55602 | 358 ft | 31 kts | 70° |
| 2026-05-05 17:16 | 50.04034 | 8.55891 | 357 ft | 28 kts | 69° |
| 2026-05-05 17:16 | 50.04110 | 8.56200 | 351 ft | 33 kts | 67° |
| 2026-05-05 17:17 | 50.04193 | 8.56554 | 352 ft | 36 kts | 70° |
| 2026-05-05 17:17 | 50.04278 | 8.56931 | 354 ft | 38 kts | 70° |
| 2026-05-05 17:17 | 50.04359 | 8.57270 | 351 ft | 23 kts | 70° |
| 2026-05-05 17:17 | 50.04428 | 8.57540 | 337 ft | 30 kts | 69° |
| 2026-05-05 17:18 | 50.04501 | 8.57846 | 334 ft | 16 kts | 70° |
| 2026-05-05 17:18 | 50.04511 | 8.57889 | 338 ft | 9 kts | 70° |
| 2026-05-05 17:18 | 50.04526 | 8.57950 | 338 ft | 0 kts | 66° |
| 2026-05-05 17:19 | 50.04549 | 8.58034 | 336 ft | 23 kts | 68° |
| 2026-05-05 17:20 | 50.04610 | 8.58303 | 333 ft | 28 kts | 72° |
| 2026-05-05 17:20 | 50.04676 | 8.58595 | 327 ft | 14 kts | 65° |
| 2026-05-05 17:20 | 50.04713 | 8.58714 | 328 ft | 14 kts | 62° |
| 2026-05-05 17:20 | 50.04776 | 8.58745 | 328 ft | 9 kts | 349° |
| 2026-05-05 17:21 | 50.04825 | 8.58720 | 333 ft | 7 kts | 340° |
| 2026-05-05 17:21 | 50.04855 | 8.58703 | 335 ft | 8 kts | 340° |
| 2026-05-05 17:21 | 50.04926 | 8.58701 | 347 ft | 10 kts | 30° |
| 2026-05-05 17:22 | 50.04971 | 8.58852 | 350 ft | 10 kts | 68° |
| 2026-05-05 17:22 | 50.04966 | 8.58894 | 347 ft | 1 kts | 158° |
| 2026-05-05 17:22 | 50.04959 | 8.58885 | 356 ft | 4 kts | 216° |
| 2026-05-05 17:22 | 50.04916 | 8.58866 | 349 ft | 3 kts | 162° |
| 2026-05-05 17:23 | 50.04908 | 8.58870 | 346 ft | 0 kts | 161° |